KROA/ROA METAR and TAF weather

Enter ICAO airport designator
Station Type Date Time Source
KROA METAR 2019/08/26 06:54 UTC NOAA

KROA 260654Z 00000KT 10SM BKN025 BKN034 18/14 A3018 RMK AO2 SLP209 T01830144


Station Type Date Time Source
KROA Decoded METAR 2019/08/26 06:54 UTC NOAA

Station name not available
Aug 26, 2019 - 02:54 AM EDT / 2019.08.26 0654 UTC
Wind: Calm:0
Visibility: 10 mile(s):0
Sky conditions: mostly cloudy
Temperature: 64.9 F (18.3 C)
Dew Point: 57.9 F (14.4 C)
Relative Humidity: 77%
Pressure (altimeter): 30.18 in. Hg (1022 hPa)
ob: KROA 260654Z 00000KT 10SM BKN025 BKN034 18/14 A3018 RMK AO2 SLP209 T01830144
cycle: 7

Station Type Date Time Source
KROA TAF 2019/08/26 06:51 UTC NOAA

TAF KROA 260549Z 2606/2706 11007KT P6SM BKN025 OVC250
FM261100 11006KT P6SM OVC015
FM261400 09006KT P6SM BKN025 OVC200
FM270300 08006KT 6SM -DZ BR OVC013

Example: see airport list